createdAt,value
2022-08-22T00:06:16.582Z,1.70
2022-08-22T00:16:59.325Z,2.30
2022-08-22T00:27:34.575Z,0.30
2022-08-22T00:38:09.233Z,0.40
2022-08-22T00:49:10.407Z,0.30
2022-08-22T01:00:04.692Z,3.00
2022-08-22T01:10:55.953Z,1.10
2022-08-22T01:22:10.188Z,0.70
2022-08-22T01:33:09.898Z,0.50
2022-08-22T01:44:00.900Z,0.10
2022-08-22T01:54:49.989Z,0.30
2022-08-22T02:05:32.201Z,0.40
2022-08-22T02:16:12.560Z,1.10
2022-08-22T02:26:51.866Z,3.00
2022-08-22T02:37:31.487Z,5.50
2022-08-22T02:48:06.912Z,3.90
2022-08-22T02:58:53.865Z,5.80
2022-08-22T03:09:32.996Z,5.40
2022-08-22T03:20:11.225Z,4.90
2022-08-22T03:30:46.181Z,3.90
2022-08-22T03:41:41.532Z,7.20
2022-08-22T03:52:34.557Z,5.50
2022-08-22T04:03:33.168Z,3.40
2022-08-22T04:14:23.239Z,4.60
2022-08-22T04:25:04.686Z,5.90
2022-08-22T04:35:43.081Z,8.10
2022-08-22T04:46:17.927Z,8.50
2022-08-22T04:57:04.323Z,8.50
2022-08-22T05:07:39.287Z,9.30
2022-08-22T05:18:11.732Z,8.70
2022-08-22T05:28:44.171Z,9.80
2022-08-22T05:39:17.897Z,13.10
2022-08-22T05:49:55.939Z,12.20
2022-08-22T06:00:27.936Z,12.10
2022-08-22T06:11:01.572Z,12.50
2022-08-22T06:21:37.167Z,13.50
2022-08-22T06:32:15.734Z,12.80
2022-08-22T06:42:48.290Z,11.70
2022-08-22T06:53:20.518Z,10.30
2022-08-22T07:03:53.043Z,8.70
2022-08-22T07:14:30.006Z,10.20
2022-08-22T07:25:03.190Z,9.50
2022-08-22T07:35:37.047Z,7.70
2022-08-22T07:46:18.521Z,10.80
2022-08-22T07:56:55.341Z,13.30
2022-08-22T08:07:28.526Z,14.30
2022-08-22T08:18:02.574Z,13.30
2022-08-22T08:28:38.457Z,9.80
2022-08-22T08:39:17.502Z,6.90
2022-08-22T08:49:59.272Z,7.10
2022-08-22T09:00:46.019Z,6.90
2022-08-22T09:12:01.084Z,10.00
2022-08-22T09:22:51.034Z,8.70
2022-08-22T09:33:24.781Z,8.50
2022-08-22T09:44:04.841Z,11.80
2022-08-22T09:54:42.745Z,11.60
2022-08-22T10:05:35.256Z,12.60
2022-08-22T10:16:21.869Z,10.40
2022-08-22T10:26:54.849Z,10.80
2022-08-22T10:37:31.491Z,10.80
2022-08-22T10:48:36.255Z,9.30
2022-08-22T10:59:14.235Z,11.20
2022-08-22T11:09:51.511Z,12.00
2022-08-22T11:20:34.371Z,13.10
2022-08-22T11:31:11.212Z,12.00
2022-08-22T11:41:48.399Z,16.30
2022-08-22T11:52:54.618Z,14.50
2022-08-22T12:03:36.438Z,18.10
2022-08-22T12:14:17.566Z,17.40
2022-08-22T12:25:05.205Z,21.70
2022-08-22T12:35:43.683Z,18.90
2022-08-22T12:46:19.626Z,16.40
2022-08-22T12:56:59.589Z,19.40
2022-08-22T13:07:31.922Z,20.10
2022-08-22T13:18:25.121Z,24.60
2022-08-22T13:29:24.133Z,25.40
2022-08-22T13:50:24.796Z,25.20
2022-08-22T14:01:20.444Z,22.30
2022-08-22T14:12:02.375Z,26.60
2022-08-22T14:22:35.137Z,26.10
2022-08-22T14:33:13.654Z,27.90
2022-08-22T14:43:54.575Z,23.50
2022-08-22T14:54:28.994Z,26.50
2022-08-22T15:05:01.947Z,27.70
2022-08-22T15:15:49.805Z,28.00
2022-08-22T15:26:28.578Z,27.60
2022-08-22T15:37:29.984Z,27.40
2022-08-22T15:48:04.444Z,24.30
2022-08-22T15:58:37.509Z,25.70
2022-08-22T16:09:07.387Z,20.20
2022-08-22T16:19:38.574Z,21.70
2022-08-22T16:30:16.850Z,22.70
2022-08-22T16:40:50.724Z,19.80
2022-08-22T16:51:22.365Z,20.20
2022-08-22T17:02:15.966Z,23.00
2022-08-22T17:12:56.400Z,20.50
2022-08-22T17:23:40.690Z,24.20
2022-08-22T17:34:30.286Z,23.60
2022-08-22T17:45:12.846Z,23.90
2022-08-22T17:56:00.268Z,19.40
2022-08-22T18:06:32.432Z,14.40
2022-08-22T18:17:02.484Z,18.00
2022-08-22T18:27:38.587Z,18.60
2022-08-22T18:38:19.793Z,19.50
2022-08-22T18:49:12.060Z,19.60
2022-08-22T18:59:59.921Z,16.40
2022-08-22T19:10:55.753Z,15.70
2022-08-22T19:21:46.474Z,19.70
2022-08-22T19:32:52.327Z,17.60
2022-08-22T19:43:38.850Z,18.30
2022-08-22T19:54:25.363Z,19.30
2022-08-22T20:05:13.086Z,19.40
2022-08-22T20:16:06.880Z,18.20
2022-08-22T20:26:51.960Z,19.70
2022-08-22T20:38:03.370Z,19.80
2022-08-22T20:48:19.708Z,20.20
2022-08-22T20:58:49.344Z,9.30
2022-08-22T21:09:39.804Z,8.60
2022-08-22T21:20:23.587Z,7.50
2022-08-22T21:30:53.073Z,6.60
2022-08-22T21:41:30.982Z,6.90
2022-08-22T21:51:59.989Z,7.40
2022-08-22T22:02:38.237Z,7.50
2022-08-22T22:13:09.309Z,6.10
2022-08-22T22:23:38.111Z,6.70
2022-08-22T22:34:07.154Z,5.10
2022-08-22T22:44:36.037Z,5.40
2022-08-22T22:55:05.477Z,10.00
2022-08-22T23:05:35.422Z,6.00
2022-08-22T23:16:10.068Z,3.10
2022-08-22T23:26:39.756Z,5.10
2022-08-22T23:37:09.676Z,8.20
2022-08-22T23:47:38.499Z,6.50
2022-08-22T23:58:07.959Z,6.10
